sensor_id;sensor_type;location;lat;lon;timestamp;temperature;humidity
67586;SHT31;55785;47.946;20.540;2023-05-02T00:01:27;8.81;71.58
67586;SHT31;55785;47.946;20.540;2023-05-02T00:03:52;8.79;71.90
67586;SHT31;55785;47.946;20.540;2023-05-02T00:06:17;8.78;71.34
67586;SHT31;55785;47.946;20.540;2023-05-02T00:08:43;8.76;71.47
67586;SHT31;55785;47.946;20.540;2023-05-02T00:11:08;8.82;71.45
67586;SHT31;55785;47.946;20.540;2023-05-02T00:13:34;8.81;71.53
67586;SHT31;55785;47.946;20.540;2023-05-02T00:15:59;8.82;71.61
67586;SHT31;55785;47.946;20.540;2023-05-02T00:18:24;8.85;71.67
67586;SHT31;55785;47.946;20.540;2023-05-02T00:20:50;8.79;71.59
67586;SHT31;55785;47.946;20.540;2023-05-02T00:23:15;8.79;72.07
67586;SHT31;55785;47.946;20.540;2023-05-02T00:25:44;8.84;71.87
67586;SHT31;55785;47.946;20.540;2023-05-02T00:28:09;8.79;72.37
67586;SHT31;55785;47.946;20.540;2023-05-02T00:30:35;8.81;72.77
67586;SHT31;55785;47.946;20.540;2023-05-02T00:33:00;8.78;72.63
67586;SHT31;55785;47.946;20.540;2023-05-02T00:35:25;8.82;72.39
67586;SHT31;55785;47.946;20.540;2023-05-02T00:37:51;8.92;71.84
67586;SHT31;55785;47.946;20.540;2023-05-02T00:40:16;8.88;72.01
67586;SHT31;55785;47.946;20.540;2023-05-02T00:42:41;8.86;71.88
67586;SHT31;55785;47.946;20.540;2023-05-02T00:45:07;8.85;72.09
67586;SHT31;55785;47.946;20.540;2023-05-02T00:47:32;8.86;72.35
67586;SHT31;55785;47.946;20.540;2023-05-02T00:49:58;8.92;71.67
67586;SHT31;55785;47.946;20.540;2023-05-02T00:52:24;8.91;72.21
67586;SHT31;55785;47.946;20.540;2023-05-02T00:54:49;8.95;71.94
67586;SHT31;55785;47.946;20.540;2023-05-02T00:57:15;8.93;71.92
67586;SHT31;55785;47.946;20.540;2023-05-02T00:59:40;8.98;72.26
67586;SHT31;55785;47.946;20.540;2023-05-02T01:05:34;9.09;72.17
67586;SHT31;55785;47.946;20.540;2023-05-02T01:08:02;9.11;72.37
67586;SHT31;55785;47.946;20.540;2023-05-02T01:10:48;9.09;72.83
67586;SHT31;55785;47.946;20.540;2023-05-02T01:13:23;9.05;72.83
67586;SHT31;55785;47.946;20.540;2023-05-02T01:15:50;9.08;72.86
67586;SHT31;55785;47.946;20.540;2023-05-02T01:18:22;9.11;72.90
67586;SHT31;55785;47.946;20.540;2023-05-02T01:20:54;9.15;72.74
67586;SHT31;55785;47.946;20.540;2023-05-02T01:29:03;9.25;72.67
67586;SHT31;55785;47.946;20.540;2023-05-02T01:31:38;9.27;72.73
67586;SHT31;55785;47.946;20.540;2023-05-02T01:34:07;9.20;72.89
67586;SHT31;55785;47.946;20.540;2023-05-02T01:36:33;9.15;72.95
67586;SHT31;55785;47.946;20.540;2023-05-02T01:39:00;9.08;73.48
67586;SHT31;55785;47.946;20.540;2023-05-02T01:41:29;9.13;73.74
67586;SHT31;55785;47.946;20.540;2023-05-02T01:43:57;9.16;73.04
67586;SHT31;55785;47.946;20.540;2023-05-02T01:46:30;9.16;72.52
67586;SHT31;55785;47.946;20.540;2023-05-02T01:48:58;9.12;73.55
67586;SHT31;55785;47.946;20.540;2023-05-02T01:51:31;9.13;73.17
67586;SHT31;55785;47.946;20.540;2023-05-02T01:54:02;9.23;73.06
67586;SHT31;55785;47.946;20.540;2023-05-02T01:56:30;9.30;72.68
67586;SHT31;55785;47.946;20.540;2023-05-02T01:58:57;9.33;72.69
67586;SHT31;55785;47.946;20.540;2023-05-02T02:01:24;9.34;72.96
67586;SHT31;55785;47.946;20.540;2023-05-02T02:03:53;9.26;73.30
67586;SHT31;55785;47.946;20.540;2023-05-02T02:06:20;9.22;73.61
67586;SHT31;55785;47.946;20.540;2023-05-02T02:08:45;9.15;73.44
67586;SHT31;55785;47.946;20.540;2023-05-02T02:11:12;9.11;73.83
67586;SHT31;55785;47.946;20.540;2023-05-02T02:13:44;9.02;73.85
67586;SHT31;55785;47.946;20.540;2023-05-02T02:16:18;9.04;73.82
67586;SHT31;55785;47.946;20.540;2023-05-02T02:18:45;8.96;74.29
67586;SHT31;55785;47.946;20.540;2023-05-02T02:21:10;8.95;74.38
67586;SHT31;55785;47.946;20.540;2023-05-02T02:23:37;8.88;74.82
67586;SHT31;55785;47.946;20.540;2023-05-02T02:26:03;8.91;74.22
67586;SHT31;55785;47.946;20.540;2023-05-02T02:28:30;8.79;74.57
67586;SHT31;55785;47.946;20.540;2023-05-02T02:30:56;8.78;74.92
67586;SHT31;55785;47.946;20.540;2023-05-02T02:33:23;8.63;75.53
67586;SHT31;55785;47.946;20.540;2023-05-02T02:36:10;8.67;75.44
67586;SHT31;55785;47.946;20.540;2023-05-02T02:38:51;8.64;75.52
67586;SHT31;55785;47.946;20.540;2023-05-02T02:41:27;8.68;75.79
67586;SHT31;55785;47.946;20.540;2023-05-02T02:52:24;8.57;75.78
67586;SHT31;55785;47.946;20.540;2023-05-02T02:54:58;8.54;76.12
67586;SHT31;55785;47.946;20.540;2023-05-02T03:02:30;8.57;76.32
67586;SHT31;55785;47.946;20.540;2023-05-02T03:04:56;8.60;76.39
67586;SHT31;55785;47.946;20.540;2023-05-02T03:07:22;8.60;76.46
67586;SHT31;55785;47.946;20.540;2023-05-02T03:09:47;8.63;76.36
67586;SHT31;55785;47.946;20.540;2023-05-02T03:12:13;8.67;76.44
67586;SHT31;55785;47.946;20.540;2023-05-02T03:14:39;8.72;76.55
67586;SHT31;55785;47.946;20.540;2023-05-02T03:17:04;8.76;76.32
67586;SHT31;55785;47.946;20.540;2023-05-02T03:19:30;8.86;76.62
67586;SHT31;55785;47.946;20.540;2023-05-02T03:21:56;8.86;76.58
67586;SHT31;55785;47.946;20.540;2023-05-02T03:24:21;8.85;76.68
67586;SHT31;55785;47.946;20.540;2023-05-02T03:26:47;8.86;76.57
67586;SHT31;55785;47.946;20.540;2023-05-02T03:29:13;8.84;76.42
67586;SHT31;55785;47.946;20.540;2023-05-02T03:31:38;8.89;76.40
67586;SHT31;55785;47.946;20.540;2023-05-02T03:34:04;8.91;76.61
67586;SHT31;55785;47.946;20.540;2023-05-02T03:36:29;8.92;76.41
67586;SHT31;55785;47.946;20.540;2023-05-02T03:38:54;8.98;76.68
67586;SHT31;55785;47.946;20.540;2023-05-02T03:41:20;9.02;76.27
67586;SHT31;55785;47.946;20.540;2023-05-02T03:43:45;9.09;76.35
67586;SHT31;55785;47.946;20.540;2023-05-02T03:46:11;9.09;76.92
67586;SHT31;55785;47.946;20.540;2023-05-02T03:48:36;9.12;77.06
67586;SHT31;55785;47.946;20.540;2023-05-02T03:51:03;9.13;77.10
67586;SHT31;55785;47.946;20.540;2023-05-02T03:53:29;9.15;76.91
67586;SHT31;55785;47.946;20.540;2023-05-02T03:55:55;9.15;76.98
67586;SHT31;55785;47.946;20.540;2023-05-02T03:58:20;9.13;77.16
67586;SHT31;55785;47.946;20.540;2023-05-02T04:00:45;9.15;77.05
67586;SHT31;55785;47.946;20.540;2023-05-02T04:03:11;9.12;77.31
67586;SHT31;55785;47.946;20.540;2023-05-02T04:05:36;9.19;77.38
67586;SHT31;55785;47.946;20.540;2023-05-02T04:08:01;9.20;76.87
67586;SHT31;55785;47.946;20.540;2023-05-02T04:10:27;9.32;76.63
67586;SHT31;55785;47.946;20.540;2023-05-02T04:12:52;9.36;77.24
67586;SHT31;55785;47.946;20.540;2023-05-02T04:15:17;9.44;77.01
67586;SHT31;55785;47.946;20.540;2023-05-02T04:17:43;9.50;76.71
67586;SHT31;55785;47.946;20.540;2023-05-02T04:20:08;9.57;76.82
67586;SHT31;55785;47.946;20.540;2023-05-02T04:22:34;9.60;76.64
67586;SHT31;55785;47.946;20.540;2023-05-02T04:24:59;9.61;76.89
67586;SHT31;55785;47.946;20.540;2023-05-02T04:27:24;9.64;77.20
67586;SHT31;55785;47.946;20.540;2023-05-02T04:29:50;9.70;76.69
67586;SHT31;55785;47.946;20.540;2023-05-02T04:32:16;9.74;79.04
67586;SHT31;55785;47.946;20.540;2023-05-02T04:34:41;9.84;78.73
67586;SHT31;55785;47.946;20.540;2023-05-02T04:37:07;9.92;78.47
67586;SHT31;55785;47.946;20.540;2023-05-02T04:39:33;9.99;78.60
67586;SHT31;55785;47.946;20.540;2023-05-02T04:41:58;10.06;77.73
67586;SHT31;55785;47.946;20.540;2023-05-02T04:44:24;10.25;78.12
67586;SHT31;55785;47.946;20.540;2023-05-02T04:46:49;10.45;76.02
67586;SHT31;55785;47.946;20.540;2023-05-02T04:49:15;10.63;76.62
67586;SHT31;55785;47.946;20.540;2023-05-02T04:51:40;10.84;78.31
67586;SHT31;55785;47.946;20.540;2023-05-02T04:54:06;10.94;77.09
67586;SHT31;55785;47.946;20.540;2023-05-02T04:56:31;11.00;76.65
67586;SHT31;55785;47.946;20.540;2023-05-02T04:58:56;11.08;76.19
67586;SHT31;55785;47.946;20.540;2023-05-02T05:01:22;11.08;76.09
67586;SHT31;55785;47.946;20.540;2023-05-02T05:03:48;11.00;76.12
67586;SHT31;55785;47.946;20.540;2023-05-02T05:06:13;11.15;76.08
67586;SHT31;55785;47.946;20.540;2023-05-02T05:08:38;11.24;75.09
67586;SHT31;55785;47.946;20.540;2023-05-02T05:11:04;11.29;74.11
67586;SHT31;55785;47.946;20.540;2023-05-02T05:13:29;11.38;73.62
67586;SHT31;55785;47.946;20.540;2023-05-02T05:15:54;11.55;72.90
67586;SHT31;55785;47.946;20.540;2023-05-02T05:18:20;11.65;73.08
67586;SHT31;55785;47.946;20.540;2023-05-02T05:20:45;11.67;76.67
67586;SHT31;55785;47.946;20.540;2023-05-02T05:23:10;11.63;74.75
67586;SHT31;55785;47.946;20.540;2023-05-02T05:25:36;11.79;74.90
67586;SHT31;55785;47.946;20.540;2023-05-02T05:28:02;11.79;73.30
67586;SHT31;55785;47.946;20.540;2023-05-02T05:30:27;11.85;73.11
67586;SHT31;55785;47.946;20.540;2023-05-02T05:32:53;11.97;74.57
67586;SHT31;55785;47.946;20.540;2023-05-02T05:35:18;12.08;73.07
67586;SHT31;55785;47.946;20.540;2023-05-02T05:37:43;12.33;73.80
67586;SHT31;55785;47.946;20.540;2023-05-02T05:40:09;12.54;71.30
67586;SHT31;55785;47.946;20.540;2023-05-02T05:42:34;12.78;73.49
67586;SHT31;55785;47.946;20.540;2023-05-02T05:45:00;12.91;71.06
67586;SHT31;55785;47.946;20.540;2023-05-02T05:47:25;13.04;73.07
67586;SHT31;55785;47.946;20.540;2023-05-02T05:49:54;13.14;74.53
67586;SHT31;55785;47.946;20.540;2023-05-02T05:52:20;13.20;72.36
67586;SHT31;55785;47.946;20.540;2023-05-02T05:54:45;13.30;71.59
67586;SHT31;55785;47.946;20.540;2023-05-02T05:57:10;13.57;70.84
67586;SHT31;55785;47.946;20.540;2023-05-02T05:59:36;13.79;69.79
67586;SHT31;55785;47.946;20.540;2023-05-02T06:02:01;13.94;68.93
67586;SHT31;55785;47.946;20.540;2023-05-02T06:04:27;13.97;68.65
67586;SHT31;55785;47.946;20.540;2023-05-02T06:06:52;14.12;68.42
67586;SHT31;55785;47.946;20.540;2023-05-02T06:09:18;14.25;68.88
67586;SHT31;55785;47.946;20.540;2023-05-02T06:11:43;14.36;67.14
67586;SHT31;55785;47.946;20.540;2023-05-02T06:14:08;14.39;67.39
67586;SHT31;55785;47.946;20.540;2023-05-02T06:16:34;14.53;70.40
67586;SHT31;55785;47.946;20.540;2023-05-02T06:18:59;14.61;68.72
67586;SHT31;55785;47.946;20.540;2023-05-02T06:21:24;14.83;69.30
67586;SHT31;55785;47.946;20.540;2023-05-02T06:23:50;15.12;69.22
67586;SHT31;55785;47.946;20.540;2023-05-02T06:26:15;15.24;65.92
67586;SHT31;55785;47.946;20.540;2023-05-02T06:28:40;15.36;66.25
67586;SHT31;55785;47.946;20.540;2023-05-02T06:31:06;15.35;64.85
67586;SHT31;55785;47.946;20.540;2023-05-02T06:33:32;15.39;65.64
67586;SHT31;55785;47.946;20.540;2023-05-02T06:35:58;15.40;60.40
67586;SHT31;55785;47.946;20.540;2023-05-02T06:38:23;15.52;61.09
67586;SHT31;55785;47.946;20.540;2023-05-02T06:40:49;15.69;61.25
67586;SHT31;55785;47.946;20.540;2023-05-02T06:43:15;15.87;59.87
67586;SHT31;55785;47.946;20.540;2023-05-02T06:45:41;16.08;59.16
67586;SHT31;55785;47.946;20.540;2023-05-02T06:48:07;16.21;56.30
67586;SHT31;55785;47.946;20.540;2023-05-02T06:50:32;16.38;56.48
67586;SHT31;55785;47.946;20.540;2023-05-02T06:52:58;16.48;55.27
67586;SHT31;55785;47.946;20.540;2023-05-02T06:55:24;16.58;55.09
67586;SHT31;55785;47.946;20.540;2023-05-02T06:57:49;16.58;54.62
67586;SHT31;55785;47.946;20.540;2023-05-02T07:00:16;16.63;55.67
67586;SHT31;55785;47.946;20.540;2023-05-02T07:02:41;16.65;55.15
67586;SHT31;55785;47.946;20.540;2023-05-02T07:05:07;16.68;55.65
67586;SHT31;55785;47.946;20.540;2023-05-02T07:07:32;16.83;57.28
67586;SHT31;55785;47.946;20.540;2023-05-02T07:09:58;17.32;54.26
67586;SHT31;55785;47.946;20.540;2023-05-02T07:12:27;17.45;51.34
67586;SHT31;55785;47.946;20.540;2023-05-02T07:14:52;17.57;54.60
67586;SHT31;55785;47.946;20.540;2023-05-02T07:17:18;17.67;50.87
67586;SHT31;55785;47.946;20.540;2023-05-02T07:19:43;17.54;49.73
67586;SHT31;55785;47.946;20.540;2023-05-02T07:22:08;17.59;53.75
67586;SHT31;55785;47.946;20.540;2023-05-02T07:24:34;17.86;50.48
67586;SHT31;55785;47.946;20.540;2023-05-02T07:26:59;18.05;52.37
67586;SHT31;55785;47.946;20.540;2023-05-02T07:29:24;18.00;52.52
67586;SHT31;55785;47.946;20.540;2023-05-02T07:31:49;17.97;49.90
67586;SHT31;55785;47.946;20.540;2023-05-02T07:34:15;18.06;50.41
67586;SHT31;55785;47.946;20.540;2023-05-02T07:36:40;18.13;49.29
67586;SHT31;55785;47.946;20.540;2023-05-02T07:39:06;18.29;49.03
67586;SHT31;55785;47.946;20.540;2023-05-02T07:41:31;18.41;48.16
67586;SHT31;55785;47.946;20.540;2023-05-02T07:43:56;18.50;49.13
67586;SHT31;55785;47.946;20.540;2023-05-02T07:46:22;18.30;48.47
67586;SHT31;55785;47.946;20.540;2023-05-02T07:48:48;18.34;49.33
67586;SHT31;55785;47.946;20.540;2023-05-02T07:51:13;18.51;50.18
67586;SHT31;55785;47.946;20.540;2023-05-02T07:53:38;18.65;48.70
67586;SHT31;55785;47.946;20.540;2023-05-02T07:56:04;18.88;51.26
67586;SHT31;55785;47.946;20.540;2023-05-02T07:58:29;18.81;44.64
67586;SHT31;55785;47.946;20.540;2023-05-02T08:00:56;18.82;50.53
67586;SHT31;55785;47.946;20.540;2023-05-02T08:03:21;18.85;51.51
67586;SHT31;55785;47.946;20.540;2023-05-02T08:05:47;19.05;48.85
67586;SHT31;55785;47.946;20.540;2023-05-02T08:08:12;19.02;47.31
67586;SHT31;55785;47.946;20.540;2023-05-02T08:10:37;18.92;50.91
67586;SHT31;55785;47.946;20.540;2023-05-02T08:13:03;19.05;52.76
67586;SHT31;55785;47.946;20.540;2023-05-02T08:15:28;19.20;51.56
67586;SHT31;55785;47.946;20.540;2023-05-02T08:17:53;19.29;49.38
67586;SHT31;55785;47.946;20.540;2023-05-02T08:20:19;19.33;46.61
67586;SHT31;55785;47.946;20.540;2023-05-02T08:22:44;19.26;50.06
67586;SHT31;55785;47.946;20.540;2023-05-02T08:25:09;19.47;55.29
67586;SHT31;55785;47.946;20.540;2023-05-02T08:27:35;19.71;50.65
67586;SHT31;55785;47.946;20.540;2023-05-02T08:30:00;19.74;50.55
67586;SHT31;55785;47.946;20.540;2023-05-02T08:32:25;19.64;51.15
67586;SHT31;55785;47.946;20.540;2023-05-02T08:34:54;19.54;48.48
67586;SHT31;55785;47.946;20.540;2023-05-02T08:37:19;19.49;49.19
67586;SHT31;55785;47.946;20.540;2023-05-02T08:39:45;19.67;51.29
67586;SHT31;55785;47.946;20.540;2023-05-02T08:42:10;19.70;50.05
67586;SHT31;55785;47.946;20.540;2023-05-02T08:44:36;19.94;51.74
67586;SHT31;55785;47.946;20.540;2023-05-02T08:47:02;19.91;51.42
67586;SHT31;55785;47.946;20.540;2023-05-02T08:49:30;19.82;48.25
67586;SHT31;55785;47.946;20.540;2023-05-02T08:51:57;19.75;52.56
67586;SHT31;55785;47.946;20.540;2023-05-02T08:54:24;19.66;51.73
67586;SHT31;55785;47.946;20.540;2023-05-02T08:56:50;19.74;53.14
67586;SHT31;55785;47.946;20.540;2023-05-02T08:59:16;19.78;51.29
67586;SHT31;55785;47.946;20.540;2023-05-02T09:01:43;19.81;50.27
67586;SHT31;55785;47.946;20.540;2023-05-02T09:04:08;19.84;50.13
67586;SHT31;55785;47.946;20.540;2023-05-02T09:06:35;20.01;53.40
67586;SHT31;55785;47.946;20.540;2023-05-02T09:09:00;20.14;51.94
67586;SHT31;55785;47.946;20.540;2023-05-02T09:11:25;20.49;53.91
67586;SHT31;55785;47.946;20.540;2023-05-02T09:13:51;20.67;49.81
67586;SHT31;55785;47.946;20.540;2023-05-02T09:16:19;20.67;48.59
67586;SHT31;55785;47.946;20.540;2023-05-02T09:18:47;20.80;47.29
67586;SHT31;55785;47.946;20.540;2023-05-02T09:21:16;20.67;48.85
67586;SHT31;55785;47.946;20.540;2023-05-02T09:26:23;21.07;50.46
67586;SHT31;55785;47.946;20.540;2023-05-02T09:28:50;21.34;49.27
67586;SHT31;55785;47.946;20.540;2023-05-02T09:31:18;21.14;47.18
67586;SHT31;55785;47.946;20.540;2023-05-02T09:33:44;21.23;49.34
67586;SHT31;55785;47.946;20.540;2023-05-02T09:36:13;21.17;45.15
67586;SHT31;55785;47.946;20.540;2023-05-02T09:38:38;20.96;47.93
67586;SHT31;55785;47.946;20.540;2023-05-02T09:41:05;20.97;47.17
67586;SHT31;55785;47.946;20.540;2023-05-02T09:43:31;21.10;47.85
67586;SHT31;55785;47.946;20.540;2023-05-02T09:46:01;21.17;48.49
67586;SHT31;55785;47.946;20.540;2023-05-02T09:48:28;21.17;45.76
67586;SHT31;55785;47.946;20.540;2023-05-02T09:50:54;21.44;45.94
67586;SHT31;55785;47.946;20.540;2023-05-02T09:53:20;21.52;47.12
67586;SHT31;55785;47.946;20.540;2023-05-02T09:55:46;21.42;50.31
67586;SHT31;55785;47.946;20.540;2023-05-02T09:58:21;21.23;47.00
67586;SHT31;55785;47.946;20.540;2023-05-02T10:00:49;21.24;44.19
67586;SHT31;55785;47.946;20.540;2023-05-02T10:03:15;21.23;45.03
67586;SHT31;55785;47.946;20.540;2023-05-02T10:05:42;21.30;44.20
67586;SHT31;55785;47.946;20.540;2023-05-02T10:08:08;21.39;45.63
67586;SHT31;55785;47.946;20.540;2023-05-02T10:10:39;21.41;46.68
67586;SHT31;55785;47.946;20.540;2023-05-02T10:13:05;21.58;43.99
67586;SHT31;55785;47.946;20.540;2023-05-02T10:15:31;21.78;45.36
67586;SHT31;55785;47.946;20.540;2023-05-02T10:17:58;21.94;46.33
67586;SHT31;55785;47.946;20.540;2023-05-02T10:20:29;21.92;45.72
67586;SHT31;55785;47.946;20.540;2023-05-02T10:22:55;22.23;44.28
67586;SHT31;55785;47.946;20.540;2023-05-02T10:25:23;22.21;42.45
67586;SHT31;55785;47.946;20.540;2023-05-02T10:27:48;22.18;41.99
67586;SHT31;55785;47.946;20.540;2023-05-02T10:30:14;22.41;42.07
67586;SHT31;55785;47.946;20.540;2023-05-02T10:32:41;22.52;44.20
67586;SHT31;55785;47.946;20.540;2023-05-02T10:35:06;22.52;41.65
67586;SHT31;55785;47.946;20.540;2023-05-02T10:37:35;22.61;44.03
67586;SHT31;55785;47.946;20.540;2023-05-02T10:40:01;22.60;42.76
67586;SHT31;55785;47.946;20.540;2023-05-02T10:42:27;22.61;42.89
67586;SHT31;55785;47.946;20.540;2023-05-02T10:44:53;22.58;40.84
67586;SHT31;55785;47.946;20.540;2023-05-02T10:47:23;22.48;39.86
67586;SHT31;55785;47.946;20.540;2023-05-02T10:49:54;22.76;43.17
67586;SHT31;55785;47.946;20.540;2023-05-02T10:52:34;23.08;40.95
67586;SHT31;55785;47.946;20.540;2023-05-02T10:55:21;23.27;41.41
67586;SHT31;55785;47.946;20.540;2023-05-02T10:58:19;23.19;40.11
67586;SHT31;55785;47.946;20.540;2023-05-02T11:00:44;23.23;40.85
67586;SHT31;55785;47.946;20.540;2023-05-02T11:03:10;23.19;38.08
67586;SHT31;55785;47.946;20.540;2023-05-02T11:06:03;23.05;40.61
67586;SHT31;55785;47.946;20.540;2023-05-02T11:08:29;23.13;40.27
67586;SHT31;55785;47.946;20.540;2023-05-02T11:10:54;22.99;42.88
67586;SHT31;55785;47.946;20.540;2023-05-02T11:13:47;22.94;40.82
67586;SHT31;55785;47.946;20.540;2023-05-02T11:16:12;22.75;40.12
67586;SHT31;55785;47.946;20.540;2023-05-02T11:18:56;22.75;43.84
67586;SHT31;55785;47.946;20.540;2023-05-02T11:21:29;22.81;40.39
67586;SHT31;55785;47.946;20.540;2023-05-02T11:24:36;22.99;40.69
67586;SHT31;55785;47.946;20.540;2023-05-02T11:30:05;22.81;44.33
67586;SHT31;55785;47.946;20.540;2023-05-02T11:35:21;22.50;45.33
67586;SHT31;55785;47.946;20.540;2023-05-02T11:37:54;22.54;45.62
67586;SHT31;55785;47.946;20.540;2023-05-02T11:40:19;22.60;46.32
67586;SHT31;55785;47.946;20.540;2023-05-02T11:42:45;22.81;49.04
67586;SHT31;55785;47.946;20.540;2023-05-02T11:45:11;23.03;50.24
67586;SHT31;55785;47.946;20.540;2023-05-02T11:47:36;22.92;41.54
67586;SHT31;55785;47.946;20.540;2023-05-02T11:50:05;22.92;45.25
67586;SHT31;55785;47.946;20.540;2023-05-02T11:52:39;22.94;44.59
67586;SHT31;55785;47.946;20.540;2023-05-02T11:55:06;22.95;43.54
67586;SHT31;55785;47.946;20.540;2023-05-02T11:57:32;22.91;44.76
67586;SHT31;55785;47.946;20.540;2023-05-02T11:59:57;22.88;43.38
67586;SHT31;55785;47.946;20.540;2023-05-02T12:02:40;22.88;45.14
67586;SHT31;55785;47.946;20.540;2023-05-02T12:05:07;22.61;44.98
67586;SHT31;55785;47.946;20.540;2023-05-02T12:07:44;22.85;50.01
67586;SHT31;55785;47.946;20.540;2023-05-02T12:10:10;23.09;48.00
67586;SHT31;55785;47.946;20.540;2023-05-02T12:12:37;23.26;45.28
67586;SHT31;55785;47.946;20.540;2023-05-02T12:15:03;23.39;45.09
67586;SHT31;55785;47.946;20.540;2023-05-02T12:17:30;23.31;45.89
67586;SHT31;55785;47.946;20.540;2023-05-02T12:19:55;23.13;44.63
67586;SHT31;55785;47.946;20.540;2023-05-02T12:22:22;22.87;44.96
67586;SHT31;55785;47.946;20.540;2023-05-02T12:24:49;22.57;44.14
67586;SHT31;55785;47.946;20.540;2023-05-02T12:27:15;22.29;45.02
67586;SHT31;55785;47.946;20.540;2023-05-02T12:29:42;22.47;48.46
67586;SHT31;55785;47.946;20.540;2023-05-02T12:32:11;22.82;47.78
67586;SHT31;55785;47.946;20.540;2023-05-02T12:34:38;23.08;45.31
67586;SHT31;55785;47.946;20.540;2023-05-02T12:37:03;23.16;43.30
67586;SHT31;55785;47.946;20.540;2023-05-02T12:39:41;22.96;43.15
67586;SHT31;55785;47.946;20.540;2023-05-02T12:42:16;22.92;49.95
67586;SHT31;55785;47.946;20.540;2023-05-02T12:44:43;23.10;43.54
67586;SHT31;55785;47.946;20.540;2023-05-02T12:47:10;23.46;43.34
67586;SHT31;55785;47.946;20.540;2023-05-02T12:49:51;23.63;38.99
67586;SHT31;55785;47.946;20.540;2023-05-02T12:52:21;23.39;41.49
67586;SHT31;55785;47.946;20.540;2023-05-02T12:55:20;22.67;44.07
67586;SHT31;55785;47.946;20.540;2023-05-02T12:57:46;22.44;44.19
67586;SHT31;55785;47.946;20.540;2023-05-02T13:00:12;22.47;43.91
67586;SHT31;55785;47.946;20.540;2023-05-02T13:02:38;22.62;48.12
67586;SHT31;55785;47.946;20.540;2023-05-02T13:05:29;22.45;50.13
67586;SHT31;55785;47.946;20.540;2023-05-02T13:07:54;22.39;46.90
67586;SHT31;55785;47.946;20.540;2023-05-02T13:10:20;22.31;46.15
67586;SHT31;55785;47.946;20.540;2023-05-02T13:12:45;22.14;44.99
67586;SHT31;55785;47.946;20.540;2023-05-02T13:15:11;21.81;42.72
67586;SHT31;55785;47.946;20.540;2023-05-02T13:17:36;21.79;49.34
67586;SHT31;55785;47.946;20.540;2023-05-02T13:20:02;21.72;41.97
67586;SHT31;55785;47.946;20.540;2023-05-02T13:22:27;21.79;41.87
67586;SHT31;55785;47.946;20.540;2023-05-02T13:24:53;21.76;44.29
67586;SHT31;55785;47.946;20.540;2023-05-02T13:27:21;21.83;47.29
67586;SHT31;55785;47.946;20.540;2023-05-02T13:29:50;21.73;46.38
67586;SHT31;55785;47.946;20.540;2023-05-02T13:32:16;21.58;46.34
67586;SHT31;55785;47.946;20.540;2023-05-02T13:34:42;21.54;47.54
67586;SHT31;55785;47.946;20.540;2023-05-02T13:37:07;21.58;46.84
67586;SHT31;55785;47.946;20.540;2023-05-02T13:39:32;21.69;47.45
67586;SHT31;55785;47.946;20.540;2023-05-02T13:41:58;21.69;47.82
67586;SHT31;55785;47.946;20.540;2023-05-02T13:44:23;21.96;48.53
67586;SHT31;55785;47.946;20.540;2023-05-02T13:46:48;22.10;46.92
67586;SHT31;55785;47.946;20.540;2023-05-02T13:49:14;22.13;44.83
67586;SHT31;55785;47.946;20.540;2023-05-02T13:51:40;22.41;43.86
67586;SHT31;55785;47.946;20.540;2023-05-02T13:54:05;22.68;42.79
67586;SHT31;55785;47.946;20.540;2023-05-02T13:56:30;22.78;45.24
67586;SHT31;55785;47.946;20.540;2023-05-02T13:58:56;22.57;40.48
67586;SHT31;55785;47.946;20.540;2023-05-02T14:01:22;22.47;43.83
67586;SHT31;55785;47.946;20.540;2023-05-02T14:03:47;22.33;42.32
67586;SHT31;55785;47.946;20.540;2023-05-02T14:06:13;22.18;42.46
67586;SHT31;55785;47.946;20.540;2023-05-02T14:08:38;22.18;41.08
67586;SHT31;55785;47.946;20.540;2023-05-02T14:11:03;22.16;45.74
67586;SHT31;55785;47.946;20.540;2023-05-02T14:13:29;21.93;44.69
67586;SHT31;55785;47.946;20.540;2023-05-02T14:15:54;21.72;42.83
67586;SHT31;55785;47.946;20.540;2023-05-02T14:18:20;21.55;44.52
67586;SHT31;55785;47.946;20.540;2023-05-02T14:20:45;21.48;44.77
67586;SHT31;55785;47.946;20.540;2023-05-02T14:23:11;21.44;45.09
67586;SHT31;55785;47.946;20.540;2023-05-02T14:25:36;21.44;42.71
67586;SHT31;55785;47.946;20.540;2023-05-02T14:28:02;21.44;42.67
67586;SHT31;55785;47.946;20.540;2023-05-02T14:30:28;21.49;40.89
67586;SHT31;55785;47.946;20.540;2023-05-02T14:32:54;21.59;45.17
67586;SHT31;55785;47.946;20.540;2023-05-02T14:35:19;21.71;44.04
67586;SHT31;55785;47.946;20.540;2023-05-02T14:37:45;21.71;47.35
67586;SHT31;55785;47.946;20.540;2023-05-02T14:40:10;21.72;47.20
67586;SHT31;55785;47.946;20.540;2023-05-02T14:42:36;21.61;43.00
67586;SHT31;55785;47.946;20.540;2023-05-02T14:45:01;21.61;43.01
67586;SHT31;55785;47.946;20.540;2023-05-02T14:47:27;21.59;43.47
67586;SHT31;55785;47.946;20.540;2023-05-02T14:49:53;21.51;43.70
67586;SHT31;55785;47.946;20.540;2023-05-02T14:52:18;21.49;43.80
67586;SHT31;55785;47.946;20.540;2023-05-02T14:54:44;21.48;43.38
67586;SHT31;55785;47.946;20.540;2023-05-02T14:57:09;21.48;43.15
67586;SHT31;55785;47.946;20.540;2023-05-02T14:59:34;21.46;43.45
67586;SHT31;55785;47.946;20.540;2023-05-02T15:02:00;21.37;43.31
67586;SHT31;55785;47.946;20.540;2023-05-02T15:04:25;21.34;46.53
67586;SHT31;55785;47.946;20.540;2023-05-02T15:06:50;21.30;47.46
67586;SHT31;55785;47.946;20.540;2023-05-02T15:09:16;21.10;46.58
67586;SHT31;55785;47.946;20.540;2023-05-02T15:11:41;21.12;43.91
67586;SHT31;55785;47.946;20.540;2023-05-02T15:14:07;21.18;42.79
67586;SHT31;55785;47.946;20.540;2023-05-02T15:16:33;21.15;45.50
67586;SHT31;55785;47.946;20.540;2023-05-02T15:18:58;21.15;44.87
67586;SHT31;55785;47.946;20.540;2023-05-02T15:21:23;21.14;45.83
67586;SHT31;55785;47.946;20.540;2023-05-02T15:23:49;21.18;41.88
67586;SHT31;55785;47.946;20.540;2023-05-02T15:26:14;21.18;43.27
67586;SHT31;55785;47.946;20.540;2023-05-02T15:28:39;21.31;46.09
67586;SHT31;55785;47.946;20.540;2023-05-02T15:31:05;21.44;43.64
67586;SHT31;55785;47.946;20.540;2023-05-02T15:33:30;21.51;41.23
67586;SHT31;55785;47.946;20.540;2023-05-02T15:35:56;21.55;41.65
67586;SHT31;55785;47.946;20.540;2023-05-02T15:38:22;21.63;42.13
67586;SHT31;55785;47.946;20.540;2023-05-02T15:40:57;21.65;41.60
67586;SHT31;55785;47.946;20.540;2023-05-02T15:43:24;21.62;43.50
67586;SHT31;55785;47.946;20.540;2023-05-02T15:45:55;21.63;41.46
67586;SHT31;55785;47.946;20.540;2023-05-02T15:48:21;21.55;41.17
67586;SHT31;55785;47.946;20.540;2023-05-02T15:50:47;21.48;41.67